sensor_id;sensor_type;location;lat;lon;timestamp;P1;durP1;ratioP1;P2;durP2;ratioP2
7941;SDS011;4016;50.758;7.150;2022-12-16T00:01:17;10.50;;;8.43;;
7941;SDS011;4016;50.758;7.150;2022-12-16T00:06:19;23.83;;;12.97;;
7941;SDS011;4016;50.758;7.150;2022-12-16T00:11:21;29.13;;;13.53;;
7941;SDS011;4016;50.758;7.150;2022-12-16T00:16:21;12.40;;;8.17;;
7941;SDS011;4016;50.758;7.150;2022-12-16T00:21:22;19.40;;;10.57;;
7941;SDS011;4016;50.758;7.150;2022-12-16T00:26:27;13.17;;;9.23;;
7941;SDS011;4016;50.758;7.150;2022-12-16T00:31:30;18.83;;;9.83;;
7941;SDS011;4016;50.758;7.150;2022-12-16T00:36:30;12.13;;;9.03;;
7941;SDS011;4016;50.758;7.150;2022-12-16T00:41:31;17.63;;;10.17;;
7941;SDS011;4016;50.758;7.150;2022-12-16T00:46:31;17.83;;;8.27;;
7941;SDS011;4016;50.758;7.150;2022-12-16T00:51:31;11.90;;;9.17;;
7941;SDS011;4016;50.758;7.150;2022-12-16T00:56:32;12.67;;;8.40;;
7941;SDS011;4016;50.758;7.150;2022-12-16T01:01:32;8.00;;;7.27;;
7941;SDS011;4016;50.758;7.150;2022-12-16T01:06:33;16.00;;;9.93;;
7941;SDS011;4016;50.758;7.150;2022-12-16T01:11:33;16.07;;;9.30;;
7941;SDS011;4016;50.758;7.150;2022-12-16T01:16:33;14.30;;;10.73;;
7941;SDS011;4016;50.758;7.150;2022-12-16T01:21:34;16.63;;;10.33;;
7941;SDS011;4016;50.758;7.150;2022-12-16T01:26:34;13.17;;;7.97;;
7941;SDS011;4016;50.758;7.150;2022-12-16T01:31:35;13.90;;;9.97;;
7941;SDS011;4016;50.758;7.150;2022-12-16T01:36:37;11.43;;;7.37;;
7941;SDS011;4016;50.758;7.150;2022-12-16T01:41:37;13.77;;;8.30;;
7941;SDS011;4016;50.758;7.150;2022-12-16T01:46:38;12.43;;;9.83;;
7941;SDS011;4016;50.758;7.150;2022-12-16T01:51:39;14.93;;;8.90;;
7941;SDS011;4016;50.758;7.150;2022-12-16T01:56:44;9.33;;;8.23;;
7941;SDS011;4016;50.758;7.150;2022-12-16T02:01:50;9.80;;;7.27;;
7941;SDS011;4016;50.758;7.150;2022-12-16T02:06:51;11.77;;;7.37;;
7941;SDS011;4016;50.758;7.150;2022-12-16T02:11:56;8.03;;;6.53;;
7941;SDS011;4016;50.758;7.150;2022-12-16T02:16:59;13.93;;;8.73;;
7941;SDS011;4016;50.758;7.150;2022-12-16T02:38:26;10.77;;;7.20;;
7941;SDS011;4016;50.758;7.150;2022-12-16T02:48:47;8.53;;;6.93;;
7941;SDS011;4016;50.758;7.150;2022-12-16T02:53:48;13.73;;;6.97;;
7941;SDS011;4016;50.758;7.150;2022-12-16T02:59:07;10.70;;;7.80;;
7941;SDS011;4016;50.758;7.150;2022-12-16T03:04:19;7.47;;;5.23;;
7941;SDS011;4016;50.758;7.150;2022-12-16T03:09:27;7.60;;;5.43;;
7941;SDS011;4016;50.758;7.150;2022-12-16T03:14:31;5.97;;;5.37;;
7941;SDS011;4016;50.758;7.150;2022-12-16T03:19:35;12.50;;;6.73;;
7941;SDS011;4016;50.758;7.150;2022-12-16T03:24:38;6.40;;;5.30;;
7941;SDS011;4016;50.758;7.150;2022-12-16T03:29:43;5.00;;;4.60;;
7941;SDS011;4016;50.758;7.150;2022-12-16T03:40:28;5.97;;;4.67;;
7941;SDS011;4016;50.758;7.150;2022-12-16T03:45:34;6.57;;;5.97;;
7941;SDS011;4016;50.758;7.150;2022-12-16T03:50:37;6.23;;;5.00;;
7941;SDS011;4016;50.758;7.150;2022-12-16T03:55:38;6.47;;;5.40;;
7941;SDS011;4016;50.758;7.150;2022-12-16T04:00:39;4.70;;;4.03;;
7941;SDS011;4016;50.758;7.150;2022-12-16T04:05:40;3.93;;;3.63;;
7941;SDS011;4016;50.758;7.150;2022-12-16T04:10:40;6.57;;;5.77;;
7941;SDS011;4016;50.758;7.150;2022-12-16T04:15:59;3.40;;;3.20;;
7941;SDS011;4016;50.758;7.150;2022-12-16T04:21:18;5.20;;;4.70;;
7941;SDS011;4016;50.758;7.150;2022-12-16T04:26:37;5.40;;;5.00;;
7941;SDS011;4016;50.758;7.150;2022-12-16T04:31:57;5.77;;;5.17;;
7941;SDS011;4016;50.758;7.150;2022-12-16T04:36:59;5.80;;;4.37;;
7941;SDS011;4016;50.758;7.150;2022-12-16T04:42:19;5.80;;;5.03;;
7941;SDS011;4016;50.758;7.150;2022-12-16T04:47:38;9.30;;;4.50;;
7941;SDS011;4016;50.758;7.150;2022-12-16T04:52:57;6.40;;;4.27;;
7941;SDS011;4016;50.758;7.150;2022-12-16T04:58:16;6.50;;;4.27;;
7941;SDS011;4016;50.758;7.150;2022-12-16T05:03:35;6.10;;;4.87;;
7941;SDS011;4016;50.758;7.150;2022-12-16T05:08:54;3.07;;;2.83;;
7941;SDS011;4016;50.758;7.150;2022-12-16T05:14:13;4.53;;;4.23;;
7941;SDS011;4016;50.758;7.150;2022-12-16T05:19:32;5.37;;;4.90;;
7941;SDS011;4016;50.758;7.150;2022-12-16T05:24:51;4.30;;;3.90;;
7941;SDS011;4016;50.758;7.150;2022-12-16T05:30:11;3.80;;;3.50;;
7941;SDS011;4016;50.758;7.150;2022-12-16T05:35:30;6.47;;;4.90;;
7941;SDS011;4016;50.758;7.150;2022-12-16T05:40:49;6.10;;;3.97;;
7941;SDS011;4016;50.758;7.150;2022-12-16T05:46:08;4.90;;;3.23;;
7941;SDS011;4016;50.758;7.150;2022-12-16T05:51:27;5.40;;;4.37;;
7941;SDS011;4016;50.758;7.150;2022-12-16T05:56:46;3.27;;;3.10;;
7941;SDS011;4016;50.758;7.150;2022-12-16T06:02:05;4.83;;;4.43;;
7941;SDS011;4016;50.758;7.150;2022-12-16T06:07:24;4.97;;;4.40;;
7941;SDS011;4016;50.758;7.150;2022-12-16T06:12:45;3.63;;;3.27;;
7941;SDS011;4016;50.758;7.150;2022-12-16T06:18:04;2.67;;;2.47;;
7941;SDS011;4016;50.758;7.150;2022-12-16T06:23:23;4.03;;;3.70;;
7941;SDS011;4016;50.758;7.150;2022-12-16T06:28:42;3.63;;;3.37;;
7941;SDS011;4016;50.758;7.150;2022-12-16T06:34:01;2.83;;;2.57;;
7941;SDS011;4016;50.758;7.150;2022-12-16T06:39:21;5.60;;;4.97;;
7941;SDS011;4016;50.758;7.150;2022-12-16T06:44:40;4.80;;;4.40;;
7941;SDS011;4016;50.758;7.150;2022-12-16T06:49:59;3.80;;;3.23;;
7941;SDS011;4016;50.758;7.150;2022-12-16T06:55:18;5.13;;;4.73;;
7941;SDS011;4016;50.758;7.150;2022-12-16T07:00:37;5.87;;;4.57;;
7941;SDS011;4016;50.758;7.150;2022-12-16T07:05:56;3.87;;;3.57;;
7941;SDS011;4016;50.758;7.150;2022-12-16T07:11:24;3.43;;;2.80;;
7941;SDS011;4016;50.758;7.150;2022-12-16T07:16:43;3.87;;;3.57;;
7941;SDS011;4016;50.758;7.150;2022-12-16T07:22:02;5.57;;;5.17;;
7941;SDS011;4016;50.758;7.150;2022-12-16T07:27:21;4.83;;;4.47;;
7941;SDS011;4016;50.758;7.150;2022-12-16T07:32:39;10.07;;;5.27;;
7941;SDS011;4016;50.758;7.150;2022-12-16T07:37:58;6.83;;;4.93;;
7941;SDS011;4016;50.758;7.150;2022-12-16T07:43:17;4.80;;;4.40;;
7941;SDS011;4016;50.758;7.150;2022-12-16T07:48:36;3.93;;;3.63;;
7941;SDS011;4016;50.758;7.150;2022-12-16T07:53:55;2.80;;;2.63;;
7941;SDS011;4016;50.758;7.150;2022-12-16T07:59:14;3.30;;;3.00;;
7941;SDS011;4016;50.758;7.150;2022-12-16T08:04:33;4.33;;;3.93;;
7941;SDS011;4016;50.758;7.150;2022-12-16T08:09:52;4.83;;;4.43;;
7941;SDS011;4016;50.758;7.150;2022-12-16T08:15:11;4.27;;;3.97;;
7941;SDS011;4016;50.758;7.150;2022-12-16T08:20:30;7.57;;;5.43;;
7941;SDS011;4016;50.758;7.150;2022-12-16T08:25:49;5.57;;;4.73;;
7941;SDS011;4016;50.758;7.150;2022-12-16T08:31:08;6.03;;;4.77;;
7941;SDS011;4016;50.758;7.150;2022-12-16T08:36:27;6.60;;;5.80;;
7941;SDS011;4016;50.758;7.150;2022-12-16T08:41:46;3.67;;;3.37;;
7941;SDS011;4016;50.758;7.150;2022-12-16T08:47:05;5.67;;;5.27;;
7941;SDS011;4016;50.758;7.150;2022-12-16T08:52:24;5.50;;;4.47;;
7941;SDS011;4016;50.758;7.150;2022-12-16T08:57:42;8.50;;;7.27;;
7941;SDS011;4016;50.758;7.150;2022-12-16T09:03:10;7.33;;;5.67;;
7941;SDS011;4016;50.758;7.150;2022-12-16T09:08:29;5.43;;;4.57;;
7941;SDS011;4016;50.758;7.150;2022-12-16T09:13:48;6.57;;;6.03;;
7941;SDS011;4016;50.758;7.150;2022-12-16T09:19:08;5.90;;;5.37;;
7941;SDS011;4016;50.758;7.150;2022-12-16T09:24:28;5.93;;;5.47;;
7941;SDS011;4016;50.758;7.150;2022-12-16T09:29:47;6.40;;;5.77;;
7941;SDS011;4016;50.758;7.150;2022-12-16T09:35:06;7.67;;;5.83;;
7941;SDS011;4016;50.758;7.150;2022-12-16T09:40:25;5.77;;;5.17;;
7941;SDS011;4016;50.758;7.150;2022-12-16T09:45:49;16.63;;;5.97;;
7941;SDS011;4016;50.758;7.150;2022-12-16T09:51:24;5.10;;;4.60;;
7941;SDS011;4016;50.758;7.150;2022-12-16T09:56:44;9.03;;;7.00;;
7941;SDS011;4016;50.758;7.150;2022-12-16T10:02:11;8.60;;;6.60;;
7941;SDS011;4016;50.758;7.150;2022-12-16T10:07:32;15.10;;;7.00;;
7941;SDS011;4016;50.758;7.150;2022-12-16T10:18:40;7.57;;;6.87;;
7941;SDS011;4016;50.758;7.150;2022-12-16T10:24:24;10.63;;;7.30;;
7941;SDS011;4016;50.758;7.150;2022-12-16T10:30:00;10.53;;;7.17;;
7941;SDS011;4016;50.758;7.150;2022-12-16T10:35:21;13.13;;;7.60;;
7941;SDS011;4016;50.758;7.150;2022-12-16T10:40:43;8.20;;;7.03;;
7941;SDS011;4016;50.758;7.150;2022-12-16T10:46:05;14.93;;;9.17;;
7941;SDS011;4016;50.758;7.150;2022-12-16T10:51:31;9.13;;;7.53;;
7941;SDS011;4016;50.758;7.150;2022-12-16T10:56:52;9.57;;;6.67;;
7941;SDS011;4016;50.758;7.150;2022-12-16T11:02:18;16.60;;;12.40;;
7941;SDS011;4016;50.758;7.150;2022-12-16T11:07:59;14.40;;;8.73;;
7941;SDS011;4016;50.758;7.150;2022-12-16T11:13:28;11.13;;;8.93;;
7941;SDS011;4016;50.758;7.150;2022-12-16T11:18:48;10.60;;;7.93;;
7941;SDS011;4016;50.758;7.150;2022-12-16T11:29:34;17.13;;;8.33;;
7941;SDS011;4016;50.758;7.150;2022-12-16T11:35:17;14.43;;;9.00;;
7941;SDS011;4016;50.758;7.150;2022-12-16T11:40:40;11.63;;;8.30;;
7941;SDS011;4016;50.758;7.150;2022-12-16T11:46:00;10.60;;;8.40;;
7941;SDS011;4016;50.758;7.150;2022-12-16T11:51:21;15.57;;;9.40;;
7941;SDS011;4016;50.758;7.150;2022-12-16T11:56:43;11.17;;;9.50;;
7941;SDS011;4016;50.758;7.150;2022-12-16T12:02:07;12.10;;;9.57;;
7941;SDS011;4016;50.758;7.150;2022-12-16T12:07:43;18.27;;;9.03;;
7941;SDS011;4016;50.758;7.150;2022-12-16T12:13:10;15.10;;;8.33;;
7941;SDS011;4016;50.758;7.150;2022-12-16T12:18:51;10.63;;;8.40;;
7941;SDS011;4016;50.758;7.150;2022-12-16T12:24:32;12.93;;;8.00;;
7941;SDS011;4016;50.758;7.150;2022-12-16T12:30:09;13.33;;;8.13;;
7941;SDS011;4016;50.758;7.150;2022-12-16T12:35:48;14.13;;;9.40;;
7941;SDS011;4016;50.758;7.150;2022-12-16T12:41:18;11.30;;;7.90;;
7941;SDS011;4016;50.758;7.150;2022-12-16T12:57:43;14.83;;;8.57;;
7941;SDS011;4016;50.758;7.150;2022-12-16T13:03:26;16.33;;;8.53;;
7941;SDS011;4016;50.758;7.150;2022-12-16T13:19:52;11.07;;;8.70;;
7941;SDS011;4016;50.758;7.150;2022-12-16T13:31:01;13.30;;;9.97;;
7941;SDS011;4016;50.758;7.150;2022-12-16T13:36:23;16.50;;;10.40;;
7941;SDS011;4016;50.758;7.150;2022-12-16T13:41:57;16.60;;;9.50;;
7941;SDS011;4016;50.758;7.150;2022-12-16T13:47:30;17.10;;;11.87;;
7941;SDS011;4016;50.758;7.150;2022-12-16T13:52:54;18.57;;;8.80;;
7941;SDS011;4016;50.758;7.150;2022-12-16T13:58:19;11.90;;;9.13;;
7941;SDS011;4016;50.758;7.150;2022-12-16T14:03:53;16.70;;;8.67;;
7941;SDS011;4016;50.758;7.150;2022-12-16T14:09:25;16.07;;;10.50;;
7941;SDS011;4016;50.758;7.150;2022-12-16T14:14:52;12.60;;;9.23;;
7941;SDS011;4016;50.758;7.150;2022-12-16T14:20:22;14.53;;;9.27;;
7941;SDS011;4016;50.758;7.150;2022-12-16T14:26:11;13.13;;;9.30;;
7941;SDS011;4016;50.758;7.150;2022-12-16T14:31:36;13.40;;;9.93;;
7941;SDS011;4016;50.758;7.150;2022-12-16T14:36:56;18.23;;;10.50;;
7941;SDS011;4016;50.758;7.150;2022-12-16T14:42:23;15.70;;;9.77;;
7941;SDS011;4016;50.758;7.150;2022-12-16T14:47:43;12.03;;;9.37;;
7941;SDS011;4016;50.758;7.150;2022-12-16T14:53:21;17.13;;;12.27;;
7941;SDS011;4016;50.758;7.150;2022-12-16T14:58:41;14.63;;;10.03;;
7941;SDS011;4016;50.758;7.150;2022-12-16T15:04:01;15.90;;;10.60;;
7941;SDS011;4016;50.758;7.150;2022-12-16T15:09:34;16.13;;;10.10;;
7941;SDS011;4016;50.758;7.150;2022-12-16T15:14:57;14.70;;;11.20;;
7941;SDS011;4016;50.758;7.150;2022-12-16T15:20:22;11.33;;;8.90;;
7941;SDS011;4016;50.758;7.150;2022-12-16T15:25:47;14.30;;;9.03;;
7941;SDS011;4016;50.758;7.150;2022-12-16T15:31:12;13.70;;;9.57;;
7941;SDS011;4016;50.758;7.150;2022-12-16T15:36:33;14.13;;;9.17;;
7941;SDS011;4016;50.758;7.150;2022-12-16T15:41:54;11.57;;;8.57;;
7941;SDS011;4016;50.758;7.150;2022-12-16T15:47:20;15.73;;;8.83;;
7941;SDS011;4016;50.758;7.150;2022-12-16T15:52:48;14.80;;;11.03;;
7941;SDS011;4016;50.758;7.150;2022-12-16T15:58:28;16.83;;;10.83;;
7941;SDS011;4016;50.758;7.150;2022-12-16T16:03:49;17.77;;;9.47;;
7941;SDS011;4016;50.758;7.150;2022-12-16T16:09:14;15.37;;;9.17;;
7941;SDS011;4016;50.758;7.150;2022-12-16T16:14:37;21.80;;;12.30;;
7941;SDS011;4016;50.758;7.150;2022-12-16T16:19:57;14.13;;;10.03;;
7941;SDS011;4016;50.758;7.150;2022-12-16T16:25:15;15.43;;;9.40;;
7941;SDS011;4016;50.758;7.150;2022-12-16T16:30:35;18.70;;;10.90;;
7941;SDS011;4016;50.758;7.150;2022-12-16T16:35:54;16.87;;;9.60;;
7941;SDS011;4016;50.758;7.150;2022-12-16T16:41:14;18.17;;;9.73;;
7941;SDS011;4016;50.758;7.150;2022-12-16T16:46:37;21.00;;;9.77;;
7941;SDS011;4016;50.758;7.150;2022-12-16T16:51:58;14.13;;;11.07;;
7941;SDS011;4016;50.758;7.150;2022-12-16T16:57:16;17.27;;;11.07;;
7941;SDS011;4016;50.758;7.150;2022-12-16T17:02:36;21.77;;;10.67;;
7941;SDS011;4016;50.758;7.150;2022-12-16T17:07:55;22.23;;;11.43;;
7941;SDS011;4016;50.758;7.150;2022-12-16T17:13:13;20.37;;;10.43;;
7941;SDS011;4016;50.758;7.150;2022-12-16T17:18:43;19.17;;;10.33;;
7941;SDS011;4016;50.758;7.150;2022-12-16T17:24:02;22.20;;;10.83;;
7941;SDS011;4016;50.758;7.150;2022-12-16T17:29:22;15.33;;;8.57;;
7941;SDS011;4016;50.758;7.150;2022-12-16T17:34:43;14.53;;;8.47;;
7941;SDS011;4016;50.758;7.150;2022-12-16T17:40:02;16.17;;;8.60;;
7941;SDS011;4016;50.758;7.150;2022-12-16T17:45:22;13.40;;;8.47;;
7941;SDS011;4016;50.758;7.150;2022-12-16T17:50:40;16.50;;;8.83;;
7941;SDS011;4016;50.758;7.150;2022-12-16T17:56:05;20.27;;;9.90;;
7941;SDS011;4016;50.758;7.150;2022-12-16T18:01:24;17.83;;;8.17;;
7941;SDS011;4016;50.758;7.150;2022-12-16T18:06:43;14.23;;;8.07;;
7941;SDS011;4016;50.758;7.150;2022-12-16T18:12:02;18.50;;;8.47;;
7941;SDS011;4016;50.758;7.150;2022-12-16T18:23:26;20.73;;;11.30;;
7941;SDS011;4016;50.758;7.150;2022-12-16T18:29:01;19.40;;;10.67;;
7941;SDS011;4016;50.758;7.150;2022-12-16T18:34:20;16.50;;;9.07;;
7941;SDS011;4016;50.758;7.150;2022-12-16T18:39:40;16.83;;;9.47;;
7941;SDS011;4016;50.758;7.150;2022-12-16T18:44:59;23.23;;;10.30;;
7941;SDS011;4016;50.758;7.150;2022-12-16T18:50:25;17.77;;;9.57;;
7941;SDS011;4016;50.758;7.150;2022-12-16T18:55:44;14.43;;;7.80;;
7941;SDS011;4016;50.758;7.150;2022-12-16T19:01:04;20.07;;;10.20;;
7941;SDS011;4016;50.758;7.150;2022-12-16T19:06:25;16.10;;;10.80;;
7941;SDS011;4016;50.758;7.150;2022-12-16T19:11:43;12.33;;;8.70;;
7941;SDS011;4016;50.758;7.150;2022-12-16T19:17:03;19.13;;;9.60;;
7941;SDS011;4016;50.758;7.150;2022-12-16T19:22:21;19.03;;;9.50;;
7941;SDS011;4016;50.758;7.150;2022-12-16T19:27:40;18.80;;;7.17;;
7941;SDS011;4016;50.758;7.150;2022-12-16T19:33:09;22.90;;;9.97;;
7941;SDS011;4016;50.758;7.150;2022-12-16T19:38:28;20.13;;;10.87;;
7941;SDS011;4016;50.758;7.150;2022-12-16T19:43:47;20.83;;;9.00;;
7941;SDS011;4016;50.758;7.150;2022-12-16T19:49:06;13.40;;;7.83;;
7941;SDS011;4016;50.758;7.150;2022-12-16T19:54:25;29.33;;;9.90;;
7941;SDS011;4016;50.758;7.150;2022-12-16T19:59:45;15.00;;;8.03;;
7941;SDS011;4016;50.758;7.150;2022-12-16T20:05:04;14.53;;;8.90;;
7941;SDS011;4016;50.758;7.150;2022-12-16T20:10:23;14.33;;;8.80;;
7941;SDS011;4016;50.758;7.150;2022-12-16T20:15:42;20.17;;;8.37;;
7941;SDS011;4016;50.758;7.150;2022-12-16T20:21:01;20.43;;;9.00;;
7941;SDS011;4016;50.758;7.150;2022-12-16T20:26:21;11.93;;;7.63;;
7941;SDS011;4016;50.758;7.150;2022-12-16T20:31:40;19.47;;;10.17;;
7941;SDS011;4016;50.758;7.150;2022-12-16T20:36:59;17.93;;;10.00;;
7941;SDS011;4016;50.758;7.150;2022-12-16T20:42:18;19.93;;;10.23;;
7941;SDS011;4016;50.758;7.150;2022-12-16T20:47:37;22.57;;;10.47;;
7941;SDS011;4016;50.758;7.150;2022-12-16T20:52:56;22.60;;;10.43;;
7941;SDS011;4016;50.758;7.150;2022-12-16T20:58:16;18.67;;;9.03;;
7941;SDS011;4016;50.758;7.150;2022-12-16T21:03:35;17.20;;;9.30;;
7941;SDS011;4016;50.758;7.150;2022-12-16T21:08:55;17.27;;;8.83;;
7941;SDS011;4016;50.758;7.150;2022-12-16T21:14:14;16.63;;;9.00;;
7941;SDS011;4016;50.758;7.150;2022-12-16T21:19:33;16.90;;;10.30;;
7941;SDS011;4016;50.758;7.150;2022-12-16T21:24:51;21.20;;;8.87;;
7941;SDS011;4016;50.758;7.150;2022-12-16T21:30:11;19.33;;;11.27;;
7941;SDS011;4016;50.758;7.150;2022-12-16T21:35:30;23.97;;;11.30;;
7941;SDS011;4016;50.758;7.150;2022-12-16T21:40:52;21.30;;;10.27;;
7941;SDS011;4016;50.758;7.150;2022-12-16T21:46:12;21.23;;;11.33;;
7941;SDS011;4016;50.758;7.150;2022-12-16T21:51:31;24.83;;;10.17;;
7941;SDS011;4016;50.758;7.150;2022-12-16T21:56:50;26.33;;;11.50;;
7941;SDS011;4016;50.758;7.150;2022-12-16T22:02:12;20.90;;;8.70;;
7941;SDS011;4016;50.758;7.150;2022-12-16T22:07:31;20.60;;;9.13;;
7941;SDS011;4016;50.758;7.150;2022-12-16T22:12:50;25.30;;;9.03;;
7941;SDS011;4016;50.758;7.150;2022-12-16T22:18:09;20.47;;;9.73;;
7941;SDS011;4016;50.758;7.150;2022-12-16T22:23:28;16.93;;;9.90;;
7941;SDS011;4016;50.758;7.150;2022-12-16T22:28:50;15.77;;;9.07;;
7941;SDS011;4016;50.758;7.150;2022-12-16T22:34:09;21.47;;;9.40;;
7941;SDS011;4016;50.758;7.150;2022-12-16T22:39:28;14.43;;;9.07;;
7941;SDS011;4016;50.758;7.150;2022-12-16T22:44:48;18.60;;;8.93;;
7941;SDS011;4016;50.758;7.150;2022-12-16T22:50:07;21.20;;;9.83;;
7941;SDS011;4016;50.758;7.150;2022-12-16T22:55:26;15.80;;;9.20;;
7941;SDS011;4016;50.758;7.150;2022-12-16T23:00:45;16.77;;;9.97;;
7941;SDS011;4016;50.758;7.150;2022-12-16T23:06:03;17.67;;;8.00;;
7941;SDS011;4016;50.758;7.150;2022-12-16T23:11:25;15.03;;;8.83;;
7941;SDS011;4016;50.758;7.150;2022-12-16T23:16:50;15.87;;;9.03;;
7941;SDS011;4016;50.758;7.150;2022-12-16T23:22:09;13.83;;;9.07;;
7941;SDS011;4016;50.758;7.150;2022-12-16T23:27:28;17.37;;;9.83;;
7941;SDS011;4016;50.758;7.150;2022-12-16T23:32:47;17.57;;;9.57;;
7941;SDS011;4016;50.758;7.150;2022-12-16T23:38:13;18.87;;;9.30;;
7941;SDS011;4016;50.758;7.150;2022-12-16T23:43:32;15.80;;;8.07;;
7941;SDS011;4016;50.758;7.150;2022-12-16T23:48:51;22.97;;;10.67;;
7941;SDS011;4016;50.758;7.150;2022-12-16T23:54:10;22.53;;;10.53;;
7941;SDS011;4016;50.758;7.150;2022-12-16T23:59:29;19.50;;;9.87;;
